createdAt,value
2022-08-26T00:01:42.248Z,59.46
2022-08-26T00:04:12.555Z,60.27
2022-08-26T00:06:42.337Z,60.88
2022-08-26T00:09:16.812Z,60.39
2022-08-26T00:11:45.359Z,60.70
2022-08-26T00:14:13.877Z,60.45
2022-08-26T00:16:48.082Z,61.26
2022-08-26T00:19:16.647Z,61.03
2022-08-26T00:21:44.072Z,59.88
2022-08-26T00:24:11.297Z,59.66
2022-08-26T00:26:39.294Z,59.28
2022-08-26T00:29:08.783Z,58.69
2022-08-26T00:31:36.736Z,58.15
2022-08-26T00:34:04.467Z,57.68
2022-08-26T00:36:32.540Z,58.02
2022-08-26T00:38:59.718Z,58.03
2022-08-26T00:41:29.019Z,58.73
2022-08-26T00:43:56.405Z,58.59
2022-08-26T00:46:33.627Z,58.24
2022-08-26T00:49:20.423Z,58.55
2022-08-26T00:51:50.933Z,58.41
2022-08-26T00:54:19.341Z,58.15
2022-08-26T00:56:50.824Z,58.63
2022-08-26T00:59:18.568Z,58.79
2022-08-26T01:01:47.122Z,58.77
2022-08-26T01:04:17.442Z,59.04
2022-08-26T01:06:45.954Z,59.33
2022-08-26T01:09:14.422Z,60.58
2022-08-26T01:11:42.828Z,59.92
2022-08-26T01:14:12.401Z,59.89
2022-08-26T01:16:39.812Z,59.65
2022-08-26T01:19:36.211Z,59.66
2022-08-26T01:22:10.080Z,59.44
2022-08-26T01:24:38.156Z,59.29
2022-08-26T01:27:09.025Z,59.35
2022-08-26T01:29:38.088Z,59.03
2022-08-26T01:32:07.825Z,59.00
2022-08-26T01:34:36.605Z,58.85
2022-08-26T01:37:07.639Z,58.77
2022-08-26T01:39:35.534Z,58.73
2022-08-26T01:42:03.525Z,58.68
2022-08-26T01:44:32.999Z,58.79
2022-08-26T01:47:02.093Z,58.31
2022-08-26T01:49:34.469Z,58.17
2022-08-26T01:52:02.799Z,58.21
2022-08-26T01:54:30.389Z,58.08
2022-08-26T01:56:58.961Z,57.93
2022-08-26T01:59:26.397Z,58.08
2022-08-26T02:01:53.826Z,57.43
2022-08-26T02:04:23.815Z,57.70
2022-08-26T02:06:52.023Z,57.25
2022-08-26T02:09:21.903Z,57.32
2022-08-26T02:11:51.191Z,58.60
2022-08-26T02:14:27.019Z,59.50
2022-08-26T02:16:55.242Z,59.97
2022-08-26T02:19:24.699Z,60.52
2022-08-26T02:21:52.710Z,60.91
2022-08-26T02:24:22.006Z,61.58
2022-08-26T02:26:51.124Z,61.24
2022-08-26T02:29:23.608Z,61.55
2022-08-26T02:31:51.894Z,61.71
2022-08-26T02:34:21.344Z,61.67
2022-08-26T02:36:49.429Z,61.97
2022-08-26T02:39:22.300Z,61.99
2022-08-26T02:41:50.014Z,62.37
2022-08-26T02:44:17.515Z,62.85
2022-08-26T02:46:47.254Z,63.11
2022-08-26T02:49:17.316Z,63.38
2022-08-26T02:51:44.692Z,63.79
2022-08-26T02:54:12.648Z,64.46
2022-08-26T02:56:40.004Z,65.27
2022-08-26T02:59:07.347Z,65.53
2022-08-26T03:01:35.731Z,64.81
2022-08-26T03:04:04.766Z,64.76
2022-08-26T03:06:32.894Z,64.76
2022-08-26T03:09:00.116Z,65.27
2022-08-26T03:11:32.251Z,66.17
2022-08-26T03:14:00.694Z,65.78
2022-08-26T03:16:32.297Z,65.33
2022-08-26T03:19:00.308Z,65.30
2022-08-26T03:21:27.572Z,65.32
2022-08-26T03:23:54.922Z,65.14
2022-08-26T03:26:27.029Z,65.39
2022-08-26T03:29:13.719Z,64.86
2022-08-26T03:31:41.411Z,64.84
2022-08-26T03:34:09.701Z,64.57
2022-08-26T03:36:38.836Z,64.43
2022-08-26T03:39:09.132Z,64.53
2022-08-26T03:41:37.026Z,64.78
2022-08-26T03:44:06.304Z,65.22
2022-08-26T03:46:33.694Z,65.44
2022-08-26T03:49:02.096Z,65.63
2022-08-26T03:51:29.302Z,66.11
2022-08-26T03:53:56.536Z,65.78
2022-08-26T03:56:24.838Z,66.61
2022-08-26T03:58:53.912Z,66.25
2022-08-26T04:01:22.526Z,66.25
2022-08-26T04:04:00.256Z,66.71
2022-08-26T04:06:33.059Z,66.63
2022-08-26T04:09:02.346Z,67.12
2022-08-26T04:11:34.332Z,67.29
2022-08-26T04:14:04.359Z,67.35
2022-08-26T04:16:32.769Z,67.48
2022-08-26T04:21:45.106Z,67.08
2022-08-26T04:24:13.738Z,66.95
2022-08-26T04:26:42.778Z,66.79
2022-08-26T04:29:15.296Z,66.77
2022-08-26T04:31:42.615Z,66.03
2022-08-26T04:34:11.059Z,65.39
2022-08-26T04:36:38.583Z,65.45
2022-08-26T04:39:05.868Z,65.29
2022-08-26T04:41:33.475Z,65.48
2022-08-26T04:44:02.396Z,65.76
2022-08-26T04:46:30.227Z,65.34
2022-08-26T04:48:57.798Z,65.43
2022-08-26T04:51:28.065Z,65.35
2022-08-26T04:53:58.674Z,65.33
2022-08-26T04:56:27.225Z,65.81
2022-08-26T04:58:56.547Z,65.86
2022-08-26T05:01:24.157Z,65.64
2022-08-26T05:03:52.679Z,65.71
2022-08-26T05:06:20.681Z,65.69
2022-08-26T05:08:49.271Z,65.53
2022-08-26T05:11:16.567Z,65.54
2022-08-26T05:13:43.880Z,65.48
2022-08-26T05:16:12.996Z,65.30
2022-08-26T05:18:41.220Z,64.74
2022-08-26T05:21:21.956Z,65.08
2022-08-26T05:23:51.343Z,65.23
2022-08-26T05:26:23.062Z,65.55
2022-08-26T05:28:54.746Z,65.66
2022-08-26T05:31:27.287Z,65.94
2022-08-26T05:33:56.835Z,66.32
2022-08-26T05:36:26.953Z,66.56
2022-08-26T05:38:55.270Z,66.49
2022-08-26T05:41:24.971Z,66.18
2022-08-26T05:43:52.777Z,65.54
2022-08-26T05:46:20.187Z,65.48
2022-08-26T05:48:47.585Z,66.22
2022-08-26T05:51:15.128Z,65.95
2022-08-26T05:53:54.790Z,65.80
2022-08-26T05:56:27.843Z,65.99
2022-08-26T05:58:55.961Z,65.69
2022-08-26T06:01:26.031Z,65.52
2022-08-26T06:03:55.254Z,64.58
2022-08-26T06:06:28.267Z,64.84
2022-08-26T06:08:59.143Z,65.58
2022-08-26T06:11:27.906Z,65.10
2022-08-26T06:14:00.032Z,64.66
2022-08-26T06:16:30.276Z,64.13
2022-08-26T06:18:57.718Z,63.87
2022-08-26T06:21:29.078Z,64.00
2022-08-26T06:24:16.437Z,63.93
2022-08-26T06:26:50.671Z,63.68
2022-08-26T06:29:23.639Z,63.91
2022-08-26T06:31:52.920Z,62.98
2022-08-26T06:34:20.521Z,63.14
2022-08-26T06:36:49.329Z,63.40
2022-08-26T06:39:20.440Z,62.99
2022-08-26T06:41:47.798Z,62.28
2022-08-26T06:44:18.578Z,61.58
2022-08-26T06:46:46.159Z,61.26
2022-08-26T06:49:17.744Z,61.54
2022-08-26T06:51:44.973Z,60.92
2022-08-26T06:54:12.290Z,59.46
2022-08-26T06:56:41.165Z,58.90
2022-08-26T06:59:09.101Z,58.88
2022-08-26T07:01:47.143Z,58.61
2022-08-26T07:04:22.169Z,58.54
2022-08-26T07:06:52.959Z,58.60
2022-08-26T07:09:24.634Z,58.38
2022-08-26T07:11:52.668Z,57.64
2022-08-26T07:14:21.472Z,57.27
2022-08-26T07:16:49.914Z,56.29
2022-08-26T07:19:29.083Z,56.47
2022-08-26T07:21:58.830Z,55.34
2022-08-26T07:24:28.554Z,55.03
2022-08-26T07:27:00.794Z,55.00
2022-08-26T07:29:29.282Z,55.50
2022-08-26T07:31:56.633Z,55.04
2022-08-26T07:34:24.752Z,54.86
2022-08-26T07:36:53.542Z,54.16
2022-08-26T07:39:22.611Z,53.53
2022-08-26T07:41:50.219Z,53.42
2022-08-26T07:44:17.711Z,53.56
2022-08-26T07:46:52.069Z,52.79
2022-08-26T07:49:22.050Z,51.17
2022-08-26T07:51:50.324Z,51.72
2022-08-26T07:54:17.864Z,51.80
2022-08-26T07:56:46.387Z,51.19
2022-08-26T07:59:15.109Z,50.63
2022-08-26T08:01:44.997Z,50.77
2022-08-26T08:04:13.406Z,50.17
2022-08-26T08:06:41.774Z,50.51
2022-08-26T08:09:12.363Z,50.42
2022-08-26T08:11:39.605Z,49.89
2022-08-26T08:14:08.442Z,50.44
2022-08-26T08:16:41.893Z,49.61
2022-08-26T08:19:13.732Z,49.40
2022-08-26T08:21:42.386Z,48.87
2022-08-26T08:24:11.250Z,49.19
2022-08-26T08:26:38.979Z,48.90
2022-08-26T08:29:08.378Z,49.20
2022-08-26T08:31:56.280Z,50.50
2022-08-26T08:34:24.483Z,49.76
2022-08-26T08:36:54.187Z,49.63
2022-08-26T08:39:22.352Z,47.60
2022-08-26T08:42:16.125Z,47.95
2022-08-26T08:44:52.196Z,45.36
2022-08-26T08:47:25.779Z,46.07
2022-08-26T08:49:54.560Z,47.09
2022-08-26T08:52:32.312Z,47.15
2022-08-26T08:54:59.607Z,46.58
2022-08-26T08:57:45.469Z,46.35
2022-08-26T09:00:18.680Z,44.15
2022-08-26T09:03:03.885Z,44.05
2022-08-26T09:05:40.140Z,42.09
2022-08-26T09:08:11.620Z,38.80
2022-08-26T09:10:44.435Z,36.20
2022-08-26T09:13:13.813Z,34.17
2022-08-26T09:16:03.536Z,34.13
2022-08-26T09:18:33.633Z,38.62
2022-08-26T09:21:14.068Z,39.08
2022-08-26T09:23:42.862Z,37.32
2022-08-26T09:26:13.423Z,37.88
2022-08-26T09:28:41.536Z,36.11
2022-08-26T09:31:12.183Z,36.03
2022-08-26T09:33:40.275Z,38.33
2022-08-26T09:36:16.483Z,39.70
2022-08-26T09:38:44.928Z,39.96
2022-08-26T09:41:21.171Z,41.14
2022-08-26T09:44:07.924Z,42.20
2022-08-26T09:46:47.333Z,42.75
2022-08-26T09:49:21.124Z,43.04
2022-08-26T09:51:50.187Z,43.85
2022-08-26T09:54:30.463Z,43.41
2022-08-26T09:57:17.476Z,43.12
2022-08-26T09:59:44.995Z,43.48
2022-08-26T10:02:17.458Z,43.79
2022-08-26T10:04:52.312Z,43.28
2022-08-26T10:07:39.316Z,42.85
2022-08-26T10:10:09.651Z,43.18
2022-08-26T10:12:41.752Z,44.30
2022-08-26T10:15:09.971Z,43.97
2022-08-26T10:17:48.140Z,42.68
2022-08-26T10:20:23.443Z,43.54
2022-08-26T10:23:03.990Z,43.63
2022-08-26T10:25:39.213Z,43.04
2022-08-26T10:28:12.746Z,44.29
2022-08-26T10:30:46.960Z,43.94
2022-08-26T10:33:18.482Z,44.10
2022-08-26T10:35:51.453Z,44.14
2022-08-26T10:38:22.122Z,44.03
2022-08-26T10:41:18.857Z,44.02
2022-08-26T10:43:48.932Z,44.10
2022-08-26T10:46:20.728Z,44.33
2022-08-26T10:48:52.997Z,44.51
2022-08-26T10:51:23.777Z,43.89
2022-08-26T10:53:58.743Z,44.11
2022-08-26T10:56:38.363Z,44.65
2022-08-26T10:59:05.526Z,43.15
2022-08-26T11:01:43.828Z,44.41
2022-08-26T11:04:29.796Z,44.94
2022-08-26T11:07:21.073Z,44.57
2022-08-26T11:09:52.365Z,44.05
2022-08-26T11:12:39.846Z,44.78
2022-08-26T11:15:10.680Z,44.56
2022-08-26T11:17:46.334Z,44.58
2022-08-26T11:20:42.087Z,44.80
2022-08-26T11:23:29.464Z,44.53
2022-08-26T11:25:57.203Z,44.64
2022-08-26T11:28:44.997Z,44.52
2022-08-26T11:31:32.688Z,45.03
2022-08-26T11:34:10.809Z,45.61
2022-08-26T11:36:41.038Z,45.74
2022-08-26T11:39:17.777Z,44.68
2022-08-26T11:41:46.180Z,46.01
2022-08-26T11:44:17.780Z,44.65
2022-08-26T11:46:52.312Z,45.37
2022-08-26T11:49:19.657Z,44.88
2022-08-26T11:51:48.338Z,44.49
2022-08-26T11:54:32.913Z,44.77
2022-08-26T11:57:09.413Z,44.12
2022-08-26T11:59:40.430Z,44.51
2022-08-26T12:02:15.284Z,45.61
2022-08-26T12:04:46.407Z,44.42
2022-08-26T12:07:14.582Z,44.64
2022-08-26T12:09:54.900Z,44.40
2022-08-26T12:12:40.398Z,43.85
2022-08-26T12:15:16.161Z,44.13
2022-08-26T12:17:44.292Z,43.28
2022-08-26T12:20:30.786Z,43.67
2022-08-26T12:22:58.982Z,43.92
2022-08-26T12:25:28.042Z,43.61
2022-08-26T12:28:04.116Z,44.05
2022-08-26T12:30:31.350Z,44.43
2022-08-26T12:33:22.124Z,44.53
2022-08-26T12:35:54.360Z,43.87
2022-08-26T12:38:25.471Z,44.30
2022-08-26T12:40:53.120Z,43.91
2022-08-26T12:43:37.401Z,44.33
2022-08-26T12:46:06.783Z,43.45
2022-08-26T12:48:36.213Z,43.50
2022-08-26T12:51:03.889Z,43.73
2022-08-26T12:53:33.503Z,43.35
2022-08-26T12:56:05.254Z,44.34
2022-08-26T12:58:33.988Z,44.33
2022-08-26T13:01:04.249Z,44.15
2022-08-26T13:03:34.717Z,43.84
2022-08-26T13:06:16.012Z,43.52
2022-08-26T13:08:48.109Z,43.08
2022-08-26T13:11:29.379Z,43.34
2022-08-26T13:14:07.240Z,43.89
2022-08-26T13:16:35.610Z,44.47
2022-08-26T13:19:05.315Z,44.26
2022-08-26T13:21:37.656Z,43.98
2022-08-26T13:24:07.582Z,44.13
2022-08-26T13:26:35.717Z,44.28
2022-08-26T13:29:05.367Z,44.12
2022-08-26T13:31:36.026Z,44.42
2022-08-26T13:34:14.944Z,44.58
2022-08-26T13:36:45.590Z,44.81
2022-08-26T13:39:13.315Z,44.49
2022-08-26T13:41:40.792Z,44.04
2022-08-26T13:44:08.173Z,43.91
2022-08-26T13:46:35.712Z,44.09
2022-08-26T13:49:03.488Z,43.41
2022-08-26T13:51:30.852Z,43.79
2022-08-26T13:53:58.200Z,44.33
2022-08-26T13:56:27.532Z,44.40
2022-08-26T13:58:55.252Z,43.21
2022-08-26T14:01:23.285Z,43.43
2022-08-26T14:03:51.224Z,42.95
2022-08-26T14:06:21.624Z,43.03
2022-08-26T14:08:49.798Z,43.29
2022-08-26T14:11:37.280Z,43.32
2022-08-26T14:14:17.834Z,42.67
2022-08-26T14:16:59.651Z,43.40
2022-08-26T14:19:29.184Z,43.76
2022-08-26T14:21:56.872Z,43.83
2022-08-26T14:24:24.136Z,44.09
2022-08-26T14:26:51.388Z,44.16
2022-08-26T14:29:18.696Z,43.16
2022-08-26T14:31:45.990Z,43.06
2022-08-26T14:34:13.878Z,43.90
2022-08-26T14:36:41.268Z,43.96
2022-08-26T14:39:10.002Z,44.19
2022-08-26T14:41:45.689Z,43.49
2022-08-26T14:44:22.238Z,42.95
2022-08-26T14:46:50.833Z,42.67
2022-08-26T14:49:18.863Z,42.96
2022-08-26T14:51:46.285Z,43.14
2022-08-26T14:54:14.739Z,42.77
2022-08-26T14:56:44.842Z,42.74
2022-08-26T14:59:13.674Z,43.00
2022-08-26T15:01:41.108Z,43.08
2022-08-26T15:04:08.410Z,43.47
2022-08-26T15:06:36.079Z,43.61
2022-08-26T15:09:04.007Z,43.77
2022-08-26T15:11:31.353Z,43.37
2022-08-26T15:14:19.123Z,43.55
2022-08-26T15:16:51.248Z,42.82
2022-08-26T15:19:19.218Z,42.54
2022-08-26T15:21:47.420Z,43.94
2022-08-26T15:24:16.118Z,44.35
2022-08-26T15:26:44.033Z,44.11
2022-08-26T15:29:11.518Z,44.48
2022-08-26T15:31:38.799Z,44.51
2022-08-26T15:34:13.280Z,45.10
2022-08-26T15:36:44.963Z,44.92
2022-08-26T15:39:13.067Z,44.88
2022-08-26T15:41:41.163Z,45.28
2022-08-26T15:44:11.200Z,45.63
2022-08-26T15:46:38.726Z,45.75
2022-08-26T15:49:06.451Z,45.64
2022-08-26T15:51:35.911Z,46.04
2022-08-26T15:54:13.788Z,45.95
2022-08-26T15:56:41.034Z,46.21
2022-08-26T15:59:11.617Z,46.41
2022-08-26T16:01:39.672Z,46.63
2022-08-26T16:04:07.517Z,46.80
2022-08-26T16:06:36.159Z,47.64
2022-08-26T16:09:04.073Z,47.35
2022-08-26T16:11:31.558Z,47.93
2022-08-26T16:13:58.795Z,47.79
2022-08-26T16:16:27.027Z,48.27
2022-08-26T16:18:55.174Z,48.35
2022-08-26T16:21:24.698Z,48.09
2022-08-26T16:23:52.182Z,47.99
2022-08-26T16:26:21.580Z,48.49
2022-08-26T16:28:48.998Z,48.99
2022-08-26T16:31:16.776Z,48.96
2022-08-26T16:33:44.316Z,48.98
2022-08-26T16:36:11.885Z,48.60
2022-08-26T16:38:39.282Z,48.89
2022-08-26T16:41:07.385Z,48.47
2022-08-26T16:43:35.508Z,48.80
2022-08-26T16:46:05.533Z,48.81
2022-08-26T16:48:32.991Z,49.03
2022-08-26T16:51:00.226Z,48.81
2022-08-26T16:53:27.527Z,49.08
2022-08-26T16:55:55.185Z,49.14
2022-08-26T16:58:22.659Z,49.09
2022-08-26T17:00:50.135Z,49.13
2022-08-26T17:03:17.697Z,49.41
2022-08-26T17:05:44.979Z,49.42
2022-08-26T17:08:14.514Z,48.99
2022-08-26T17:10:51.806Z,49.33
2022-08-26T17:13:35.175Z,49.54
2022-08-26T17:16:04.952Z,49.52
2022-08-26T17:18:33.497Z,49.55
2022-08-26T17:21:02.355Z,49.63
2022-08-26T17:23:29.700Z,49.56
2022-08-26T17:25:57.033Z,49.76
2022-08-26T17:28:24.256Z,50.38
2022-08-26T17:30:51.641Z,49.71
2022-08-26T17:33:22.032Z,49.53
2022-08-26T17:35:53.090Z,49.37
2022-08-26T17:38:21.248Z,49.52
2022-08-26T17:40:50.262Z,49.73
2022-08-26T17:43:17.920Z,50.23
2022-08-26T17:45:45.565Z,49.80
2022-08-26T17:48:12.995Z,50.51
2022-08-26T17:50:41.303Z,50.68
2022-08-26T17:53:12.578Z,50.13
2022-08-26T17:55:47.067Z,50.55
2022-08-26T17:58:14.988Z,50.46
2022-08-26T18:00:47.227Z,50.45
2022-08-26T18:03:14.507Z,50.62
2022-08-26T18:05:42.605Z,50.26
2022-08-26T18:08:09.906Z,50.65
2022-08-26T18:10:37.369Z,50.74
2022-08-26T18:13:04.787Z,50.67
2022-08-26T18:15:32.035Z,50.73
2022-08-26T18:17:59.325Z,50.94
2022-08-26T18:20:26.776Z,51.00
2022-08-26T18:22:54.109Z,51.10
2022-08-26T18:25:21.395Z,51.56
2022-08-26T18:27:48.862Z,51.84
2022-08-26T18:30:20.728Z,51.76
2022-08-26T18:32:48.561Z,51.97
2022-08-26T18:35:15.862Z,52.49
2022-08-26T18:37:44.406Z,52.39
2022-08-26T18:40:12.842Z,52.48
2022-08-26T18:42:41.371Z,52.96
2022-08-26T18:45:09.397Z,52.77
2022-08-26T18:47:36.615Z,52.63
2022-08-26T18:50:04.610Z,52.49
2022-08-26T18:52:32.221Z,52.75
2022-08-26T18:54:59.528Z,53.23
2022-08-26T18:57:26.724Z,53.06
2022-08-26T18:59:53.957Z,53.11
2022-08-26T19:02:21.442Z,53.45
2022-08-26T19:04:49.158Z,53.61
2022-08-26T19:07:16.377Z,53.77
2022-08-26T19:09:43.708Z,54.04
2022-08-26T19:12:11.725Z,53.48
2022-08-26T19:14:39.055Z,53.67
2022-08-26T19:17:06.424Z,53.32
2022-08-26T19:19:33.773Z,53.63
2022-08-26T19:22:02.141Z,53.67
2022-08-26T19:24:29.393Z,53.78
2022-08-26T19:26:58.378Z,53.55
2022-08-26T19:29:27.099Z,54.16
2022-08-26T19:31:54.459Z,54.18
2022-08-26T19:34:21.674Z,54.33
2022-08-26T19:36:49.423Z,55.13
2022-08-26T19:39:16.715Z,54.87
2022-08-26T19:41:44.453Z,54.49
2022-08-26T19:44:33.999Z,54.84
2022-08-26T19:47:01.501Z,55.61
2022-08-26T19:49:28.705Z,55.54
2022-08-26T19:51:55.932Z,55.80
2022-08-26T19:54:23.177Z,56.07
2022-08-26T19:56:50.397Z,55.86
2022-08-26T19:59:18.080Z,55.62
2022-08-26T20:01:45.338Z,55.35
2022-08-26T20:04:12.649Z,55.08
2022-08-26T20:06:40.059Z,55.51
2022-08-26T20:09:07.281Z,55.50
2022-08-26T20:11:34.498Z,55.83
2022-08-26T20:14:01.896Z,56.19
2022-08-26T20:16:29.132Z,56.40
2022-08-26T20:19:15.121Z,57.02
2022-08-26T20:21:43.033Z,57.25
2022-08-26T20:24:12.688Z,57.72
2022-08-26T20:26:41.099Z,58.35
2022-08-26T20:29:09.414Z,58.68
2022-08-26T20:31:37.180Z,59.18
2022-08-26T20:34:05.281Z,59.81
2022-08-26T20:36:33.506Z,60.49
2022-08-26T20:39:00.898Z,60.57
2022-08-26T20:41:28.617Z,60.81
2022-08-26T20:43:56.362Z,60.56
2022-08-26T20:46:25.241Z,60.54
2022-08-26T20:48:53.160Z,60.46
2022-08-26T20:51:20.982Z,60.14
2022-08-26T20:53:48.371Z,59.83
2022-08-26T20:56:16.748Z,59.73
2022-08-26T20:58:43.972Z,59.87
2022-08-26T21:01:18.046Z,59.84
2022-08-26T21:03:45.716Z,59.82
2022-08-26T21:06:13.006Z,59.83
2022-08-26T21:08:42.606Z,59.54
2022-08-26T21:11:11.048Z,59.82
2022-08-26T21:14:01.222Z,59.74
2022-08-26T21:16:26.418Z,59.49
2022-08-26T21:18:53.701Z,59.68
2022-08-26T21:21:25.331Z,59.95
2022-08-26T21:23:52.594Z,60.45
2022-08-26T21:26:20.358Z,60.41
2022-08-26T21:28:47.639Z,60.47
2022-08-26T21:31:16.194Z,60.35
2022-08-26T21:33:43.887Z,60.45
2022-08-26T21:36:12.044Z,60.04
2022-08-26T21:38:39.859Z,60.14
2022-08-26T21:41:12.924Z,60.27
2022-08-26T21:43:42.285Z,60.18
2022-08-26T21:46:16.958Z,60.24
2022-08-26T21:48:50.738Z,60.12
2022-08-26T21:51:19.902Z,60.07
2022-08-26T21:53:47.293Z,60.43
2022-08-26T21:56:16.519Z,60.51
2022-08-26T21:58:43.893Z,60.44
2022-08-26T22:01:12.509Z,60.71
2022-08-26T22:03:47.230Z,60.34
2022-08-26T22:06:19.336Z,61.07
2022-08-26T22:08:46.635Z,61.55
2022-08-26T22:11:14.257Z,61.18
2022-08-26T22:13:42.109Z,60.80
2022-08-26T22:16:10.004Z,60.64
2022-08-26T22:18:37.762Z,60.64
2022-08-26T22:21:09.262Z,60.41
2022-08-26T22:23:37.094Z,60.54
2022-08-26T22:26:05.523Z,60.58
2022-08-26T22:28:33.157Z,60.49
2022-08-26T22:31:01.465Z,60.74
2022-08-26T22:33:29.280Z,60.78
2022-08-26T22:35:56.572Z,60.80
2022-08-26T22:38:24.046Z,60.59
2022-08-26T22:40:55.221Z,59.99
2022-08-26T22:43:26.338Z,60.05
2022-08-26T22:45:54.412Z,60.35
2022-08-26T22:48:23.716Z,60.50
2022-08-26T22:50:51.395Z,61.58
2022-08-26T22:53:18.662Z,62.76
2022-08-26T22:55:46.531Z,63.14
2022-08-26T22:58:15.388Z,63.13
2022-08-26T23:00:43.646Z,64.37
2022-08-26T23:03:11.696Z,64.21
2022-08-26T23:05:39.667Z,64.19
2022-08-26T23:08:07.600Z,63.87
2022-08-26T23:10:36.802Z,63.76
2022-08-26T23:13:05.082Z,63.66
2022-08-26T23:15:32.680Z,63.90
2022-08-26T23:18:00.471Z,63.33
2022-08-26T23:20:28.483Z,63.22
2022-08-26T23:22:56.202Z,63.16
2022-08-26T23:25:24.460Z,62.94
2022-08-26T23:27:52.420Z,63.34
2022-08-26T23:30:21.777Z,63.04
2022-08-26T23:32:49.634Z,62.68
2022-08-26T23:35:17.091Z,62.00
2022-08-26T23:37:45.078Z,63.79
2022-08-26T23:40:25.299Z,64.29
2022-08-26T23:42:53.539Z,63.52
2022-08-26T23:45:21.124Z,63.67
2022-08-26T23:47:50.614Z,63.59
2022-08-26T23:50:19.047Z,63.87
2022-08-26T23:53:05.391Z,63.22
2022-08-26T23:55:36.440Z,62.79
2022-08-26T23:58:04.456Z,62.44
